Terminal Aerodrome Forecast
Issued by NWS Wakefield, VA

Home | Current Version | Previous Version | Text Only | Print | Product List | Glossary On
Versions: 1 2 3 4 5 6 7 8 9 10 11 12 13 14 15
000
FTUS41 KAKQ 221151 CCA
TAFSBY
TAF COR
KSBY 221151Z 2212/2312 29006KT 5SM -SHRA BR SCT008 OVC015
      TEMPO 2212/2214 2SM SHRA BR BKN008
     FM221400 31011KT P6SM BKN025
     FM221700 32013G21KT P6SM SCT060
     FM222300 34008KT P6SM SKC=

USA.gov is the U.S. government's official web portal to all federal, state and local government web resources and services.